sim
Sign-in with your pilot id or email,
or register
Callsign
Passwort

Schedule Details

Flight Number: OEO4500
Departure: Frankfurt Airport (EDDF) at 13:00
Arrival: Munich Airport (EDDM) at 14:10

Weather Information
Getting current METAR information for EDDF 010150Z 07004KT 9999 FEW032 10/09 Q1008 NOSIG
Getting current METAR information for EDDM 010150Z 08001KT 1200 0500NE R08L/0450N R08R/1000N BCFG NSC 04/04 Q1010 BECMG 0600 FG

Schedule Frequency

Route Map